Time;durP1;ratioP1;P1;durP2;ratioP2;P2;SDS_P1;SDS_P2;PMS_P1;PMS_P2;Temp;Humidity;BMP_temperature;BMP_pressure;BME280_temperature;BME280_humidity;BME280_pressure;Samples;Min_cycle;Max_cycle;Signal;HPM_P1;HPM_P2
2022/03/16 00:00:20;;;;;;;24.58;14.40;;;;;;;3.01;92.93;102235.16;5016018;28;20036;-87
2022/03/16 00:02:47;;;;;;;25.73;14.10;;;;;;;2.96;92.75;102237.09;5038250;28;20448;-87
2022/03/16 00:05:13;;;;;;;27.23;14.15;;;;;;;2.90;92.43;102233.09;5010670;28;20044;-87
2022/03/16 00:07:39;;;;;;;23.55;13.95;;;;;;;2.83;92.59;102231.75;5017483;28;20033;-87
2022/03/16 00:10:07;;;;;;;23.88;13.65;;;;;;;2.79;92.34;102225.94;5022541;28;20553;-87
2022/03/16 00:12:36;;;;;;;23.15;13.20;;;;;;;2.75;91.95;102219.28;5028960;28;20459;-87
2022/03/16 00:15:03;;;;;;;19.63;13.30;;;;;;;2.70;91.64;102218.66;5012455;28;20041;-87
2022/03/16 00:17:29;;;;;;;21.80;13.60;;;;;;;2.66;91.46;102223.09;5013779;28;20398;-87
2022/03/16 00:19:54;;;;;;;22.92;12.70;;;;;;;2.64;91.54;102219.78;5022772;28;20033;-87
2022/03/16 00:22:20;;;;;;;20.17;13.05;;;;;;;2.63;91.63;102230.91;5006934;28;20116;-86
2022/03/16 00:24:45;;;;;;;21.40;13.13;;;;;;;2.63;91.86;102224.97;5041165;28;20083;-87
2022/03/16 00:27:11;;;;;;;22.73;13.80;;;;;;;2.63;91.72;102233.47;5029366;28;20119;-87
2022/03/16 00:29:36;;;;;;;24.90;14.57;;;;;;;2.65;91.74;102238.53;5024397;28;20040;-87
2022/03/16 00:32:02;;;;;;;30.23;15.52;;;;;;;2.66;92.22;102235.06;5026425;28;20035;-87
2022/03/16 00:34:28;;;;;;;27.50;14.68;;;;;;;2.66;92.16;102235.06;5024604;28;20029;-87
2022/03/16 00:36:53;;;;;;;27.33;14.77;;;;;;;2.67;92.32;102240.09;5012459;28;20040;-87
2022/03/16 00:39:19;;;;;;;23.45;14.25;;;;;;;2.67;92.40;102236.72;5027319;28;20029;-87
2022/03/16 00:41:44;;;;;;;20.55;13.35;;;;;;;2.67;92.60;102234.16;5027014;28;20515;-88
2022/03/16 00:44:10;;;;;;;24.30;13.55;;;;;;;2.66;92.19;102235.91;5042351;28;20036;-87
2022/03/16 00:46:38;;;;;;;23.13;14.20;;;;;;;2.60;92.18;102228.50;5031132;28;20378;-87
2022/03/16 00:49:04;;;;;;;20.88;13.82;;;;;;;2.53;91.79;102225.38;5021341;28;20082;-87
2022/03/16 00:51:31;;;;;;;22.45;13.15;;;;;;;2.46;91.82;102223.97;5028598;28;20038;-87
2022/03/16 00:53:57;;;;;;;25.83;14.15;;;;;;;2.42;91.62;102225.03;5018171;28;20028;-87
2022/03/16 00:56:22;;;;;;;22.17;13.82;;;;;;;2.39;91.22;102229.44;5021089;28;20468;-87
2022/03/16 00:58:49;;;;;;;23.58;13.70;;;;;;;2.33;91.10;102226.25;5012062;28;20150;-88
2022/03/16 01:01:15;;;;;;;23.27;14.40;;;;;;;2.30;91.25;102225.56;5024110;28;20502;-87
2022/03/16 01:03:42;;;;;;;24.20;14.27;;;;;;;2.26;91.10;102214.63;5027603;28;20398;-87
2022/03/16 01:06:12;;;;;;;23.40;14.55;;;;;;;2.27;91.49;102223.13;5016480;28;20142;-87
2022/03/16 01:08:39;;;;;;;24.48;14.38;;;;;;;2.27;91.74;102218.84;5017061;28;20041;-87
2022/03/16 01:11:05;;;;;;;25.25;15.18;;;;;;;2.29;91.49;102219.59;5021714;28;20545;-87
2022/03/16 01:13:30;;;;;;;28.08;15.98;;;;;;;2.30;92.33;102217.91;5014354;28;20068;-87
2022/03/16 01:15:56;;;;;;;30.60;17.38;;;;;;;2.30;92.34;102218.72;5014779;28;20092;-87
2022/03/16 01:18:21;;;;;;;31.45;16.85;;;;;;;2.33;93.05;102217.75;5027315;28;20025;-87
2022/03/16 01:20:47;;;;;;;33.85;18.00;;;;;;;2.43;93.81;102213.03;5014065;28;20625;-87
2022/03/16 01:23:12;;;;;;;32.17;18.65;;;;;;;2.47;94.79;102212.03;5017493;28;20115;-87
2022/03/16 01:25:38;;;;;;;30.73;17.95;;;;;;;2.42;95.18;102216.50;5014965;28;20033;-87
2022/03/16 01:28:03;;;;;;;34.08;19.02;;;;;;;2.50;96.13;102220.38;5010649;28;20040;-87
2022/03/16 01:30:29;;;;;;;34.35;19.83;;;;;;;2.47;96.68;102212.84;5022377;28;20040;-87
2022/03/16 01:32:54;;;;;;;35.40;20.42;;;;;;;2.49;97.25;102223.84;5019536;28;20468;-87
2022/03/16 01:35:20;;;;;;;35.70;19.50;;;;;;;2.54;97.71;102221.06;5020811;28;20249;-87
2022/03/16 01:37:45;;;;;;;37.63;20.50;;;;;;;2.60;97.82;102219.97;5015752;28;20025;-87
2022/03/16 01:40:11;;;;;;;42.03;21.55;;;;;;;2.61;98.08;102221.63;5025720;28;20028;-87
2022/03/16 01:42:37;;;;;;;38.45;21.20;;;;;;;2.51;98.58;102214.38;5007826;28;20037;-87
2022/03/16 01:45:04;;;;;;;38.80;21.90;;;;;;;2.44;98.86;102212.16;5004499;28;20065;-87
2022/03/16 01:47:30;;;;;;;37.50;21.58;;;;;;;2.38;99.33;102213.25;5011040;28;20065;-87
2022/03/16 01:49:56;;;;;;;39.05;21.40;;;;;;;2.34;99.25;102211.75;5017429;28;20501;-87
2022/03/16 01:52:25;;;;;;;39.22;21.08;;;;;;;2.32;99.79;102213.53;5017150;28;20132;-87
2022/03/16 01:54:51;;;;;;;37.38;20.17;;;;;;;2.29;100.00;102218.78;5018609;28;20458;-87
2022/03/16 01:57:17;;;;;;;36.08;19.83;;;;;;;2.26;99.82;102212.06;5030095;28;20033;-87
2022/03/16 01:59:43;;;;;;;37.00;20.95;;;;;;;2.24;100.00;102207.91;5023761;28;20021;-87
2022/03/16 02:02:10;;;;;;;33.40;19.63;;;;;;;2.23;100.00;102208.81;5018457;28;20040;-87
2022/03/16 02:04:36;;;;;;;36.13;19.25;;;;;;;2.20;100.00;102196.97;5031453;28;20025;-87
2022/03/16 02:07:03;;;;;;;36.25;19.63;;;;;;;2.19;100.00;102202.19;5009197;28;20710;-88
2022/03/16 02:09:29;;;;;;;31.65;19.23;;;;;;;2.17;100.00;102204.81;5006230;28;20116;-87
2022/03/16 02:11:55;;;;;;;31.00;17.98;;;;;;;2.16;99.84;102209.97;5017409;28;20058;-87
2022/03/16 02:14:21;;;;;;;32.92;18.10;;;;;;;2.14;99.85;102208.31;5020418;28;20033;-87
2022/03/16 02:16:49;;;;;;;28.70;17.33;;;;;;;2.13;99.82;102206.66;5019869;28;20037;-87
2022/03/16 02:19:15;;;;;;;31.13;18.08;;;;;;;2.12;99.52;102196.47;5024749;28;20438;-88
2022/03/16 02:21:45;;;;;;;28.50;17.65;;;;;;;2.09;99.02;102194.91;5035220;28;20170;-87
2022/03/16 02:24:11;;;;;;;29.80;17.05;;;;;;;2.05;98.54;102193.34;5016082;28;20537;-88
2022/03/16 02:26:37;;;;;;;31.70;17.75;;;;;;;2.03;97.88;102192.59;5015838;28;20112;-88
2022/03/16 02:29:03;;;;;;;27.33;16.77;;;;;;;2.00;97.76;102185.06;5020366;28;20469;-87
2022/03/16 02:31:29;;;;;;;29.08;15.85;;;;;;;1.95;97.36;102186.97;5017680;28;20033;-88
2022/03/16 02:33:55;;;;;;;22.95;14.60;;;;;;;1.88;97.00;102186.41;5018035;28;20481;-87
2022/03/16 02:36:20;;;;;;;28.77;15.25;;;;;;;1.83;97.03;102192.59;5014170;28;20036;-87
2022/03/16 02:38:46;;;;;;;23.65;14.50;;;;;;;1.83;96.68;102195.16;5014498;28;20041;-87
2022/03/16 02:41:12;;;;;;;28.13;15.85;;;;;;;1.82;96.53;102194.34;5013376;28;20283;-87
2022/03/16 02:43:38;;;;;;;29.23;16.80;;;;;;;1.84;96.03;102184.88;5032136;28;20320;-87
2022/03/16 02:46:04;;;;;;;26.23;16.40;;;;;;;1.83;96.04;102178.09;5031558;28;20519;-87
2022/03/16 02:48:30;;;;;;;29.42;17.33;;;;;;;1.83;95.89;102174.69;5025296;28;20029;-87
2022/03/16 02:50:56;;;;;;;30.02;16.75;;;;;;;1.84;96.00;102182.31;5029472;28;20663;-87
2022/03/16 02:53:21;;;;;;;25.95;16.92;;;;;;;1.83;96.05;102175.56;5027064;28;20109;-87
2022/03/16 02:55:48;;;;;;;29.88;17.40;;;;;;;1.82;95.88;102186.66;5014161;28;20128;-87
2022/03/16 02:58:15;;;;;;;33.35;17.58;;;;;;;1.89;95.78;102195.75;5015188;28;20025;-88
2022/03/16 03:00:41;;;;;;;32.38;18.00;;;;;;;1.92;96.33;102181.97;5013352;28;20037;-87
2022/03/16 03:03:07;;;;;;;31.13;17.52;;;;;;;1.89;96.52;102177.84;5014064;28;20191;-87
2022/03/16 03:05:32;;;;;;;28.63;16.10;;;;;;;1.84;97.00;102179.75;5019523;28;20035;-87
2022/03/16 03:07:59;;;;;;;31.15;17.38;;;;;;;1.82;96.97;102179.00;5017905;28;20048;-87
2022/03/16 03:10:24;;;;;;;31.83;17.50;;;;;;;1.79;96.90;102175.72;5011230;28;20096;-87
2022/03/16 03:12:50;;;;;;;30.65;17.15;;;;;;;1.72;97.18;102172.63;5028656;28;20028;-88
2022/03/16 03:15:15;;;;;;;32.17;16.35;;;;;;;1.65;97.17;102174.59;5017497;28;20040;-88
2022/03/16 03:17:42;;;;;;;27.45;16.08;;;;;;;1.59;97.05;102172.28;5017543;28;20114;-88
2022/03/16 03:20:08;;;;;;;30.60;16.85;;;;;;;1.50;96.93;102163.28;5011558;28;20131;-88
2022/03/16 03:22:34;;;;;;;24.00;14.63;;;;;;;1.42;96.71;102165.31;5010558;28;20022;-87
2022/03/16 03:24:59;;;;;;;27.30;14.95;;;;;;;1.38;96.85;102171.47;5018691;28;20741;-88
2022/03/16 03:27:25;;;;;;;22.25;13.27;;;;;;;1.35;96.60;102166.47;5014874;28;20044;-87
2022/03/16 03:29:51;;;;;;;25.48;14.50;;;;;;;1.35;96.84;102179.25;5016944;28;20031;-87
2022/03/16 03:32:17;;;;;;;26.67;15.10;;;;;;;1.36;96.77;102180.94;5016394;28;20040;-87
2022/03/16 03:34:47;;;;;;;26.95;15.90;;;;;;;1.39;96.59;102179.97;5016954;28;20018;-87
2022/03/16 03:37:14;;;;;;;29.60;16.70;;;;;;;1.41;96.68;102183.28;5011100;28;20037;-87
2022/03/16 03:39:41;;;;;;;25.05;14.93;;;;;;;1.40;96.49;102185.00;5012025;28;20051;-87
2022/03/16 03:42:07;;;;;;;34.55;17.98;;;;;;;1.61;96.97;102187.59;5013036;28;20203;-88
2022/03/16 03:44:36;;;;;;;38.78;18.58;;;;;;;1.75;97.91;102198.03;5012948;28;20025;-87
2022/03/16 03:47:06;;;;;;;33.35;18.10;;;;;;;1.99;99.17;102201.28;5014950;28;20029;-87
2022/03/16 03:49:37;;;;;;;36.40;18.38;;;;;;;1.93;99.17;102202.38;5017709;28;20025;-87
2022/03/16 03:52:03;;;;;;;33.67;18.23;;;;;;;1.83;99.73;102198.56;5028770;28;20029;-87
2022/03/16 03:54:29;;;;;;;40.10;19.85;;;;;;;1.83;99.67;102203.69;5010776;28;20176;-87
2022/03/16 03:56:55;;;;;;;41.42;21.38;;;;;;;2.03;100.00;102202.00;5005472;28;20132;-87
2022/03/16 03:59:21;;;;;;;39.05;20.30;;;;;;;2.04;100.00;102201.13;5018265;28;20036;-87
2022/03/16 04:01:47;;;;;;;40.22;21.20;;;;;;;2.06;100.00;102209.56;5018368;28;20044;-88
2022/03/16 04:04:13;;;;;;;39.55;21.40;;;;;;;2.16;100.00;102202.31;5021460;28;20035;-87
2022/03/16 04:06:39;;;;;;;45.33;22.80;;;;;;;2.17;100.00;102199.69;5016346;28;20072;-87
2022/03/16 04:09:05;;;;;;;43.60;22.70;;;;;;;2.23;100.00;102198.56;5016645;28;20033;-87
2022/03/16 04:11:31;;;;;;;40.78;20.77;;;;;;;2.23;100.00;102209.63;5034562;28;20115;-87
2022/03/16 04:13:56;;;;;;;38.28;20.02;;;;;;;2.22;100.00;102209.69;5017791;28;20112;-87
2022/03/16 04:16:22;;;;;;;44.35;22.58;;;;;;;2.12;100.00;102210.09;5018700;28;20497;-88
2022/03/16 04:18:47;;;;;;;48.13;22.83;;;;;;;2.14;100.00;102208.31;5018645;28;20036;-87
2022/03/16 04:21:13;;;;;;;47.28;24.30;;;;;;;2.11;100.00;102207.59;5029983;28;20281;-87
2022/03/16 04:23:38;;;;;;;47.60;25.05;;;;;;;2.10;100.00;102201.66;5019251;28;20025;-88
2022/03/16 04:26:04;;;;;;;43.08;22.45;;;;;;;2.09;100.00;102205.13;5015054;28;20043;-88
2022/03/16 04:28:29;;;;;;;42.42;21.30;;;;;;;1.98;100.00;102198.78;5034454;28;20547;-88
2022/03/16 04:30:55;;;;;;;32.97;19.10;;;;;;;1.91;100.00;102200.81;5020797;28;20040;-88
2022/03/16 04:33:20;;;;;;;34.53;18.02;;;;;;;1.94;99.89;102200.66;5031413;28;20025;-88
2022/03/16 04:35:46;;;;;;;36.75;18.83;;;;;;;1.87;99.58;102207.78;5016291;28;20029;-87
2022/03/16 04:38:11;;;;;;;31.05;16.65;;;;;;;1.75;99.62;102200.59;5015404;28;20045;-87
2022/03/16 04:40:37;;;;;;;32.00;17.67;;;;;;;1.75;99.63;102201.47;5017542;28;20025;-87
2022/03/16 04:43:03;;;;;;;33.28;17.85;;;;;;;1.77;99.46;102200.53;5013792;28;20036;-87
2022/03/16 04:45:28;;;;;;;35.25;18.38;;;;;;;1.81;99.50;102195.25;5014620;28;20037;-87
2022/03/16 04:47:53;;;;;;;38.42;18.38;;;;;;;1.81;99.82;102185.03;5017331;28;20040;-88
2022/03/16 04:50:20;;;;;;;36.55;18.15;;;;;;;1.81;99.93;102195.25;5036388;28;20182;-87
2022/03/16 04:52:47;;;;;;;33.67;17.42;;;;;;;1.93;99.88;102197.28;5018382;28;20041;-88
2022/03/16 04:55:13;;;;;;;36.95;19.38;;;;;;;1.93;99.75;102192.16;5011507;28;20047;-87
2022/03/16 04:57:39;;;;;;;42.80;18.92;;;;;;;1.87;99.94;102186.47;5015620;28;20025;-88
2022/03/16 05:00:05;;;;;;;37.63;18.67;;;;;;;1.92;100.00;102185.41;5021680;28;20493;-87
2022/03/16 05:02:31;;;;;;;33.35;17.90;;;;;;;1.90;99.83;102194.00;5015300;28;20051;-87
2022/03/16 05:04:56;;;;;;;39.72;17.88;;;;;;;1.86;99.99;102193.31;5016562;28;20541;-88
2022/03/16 05:07:22;;;;;;;34.25;18.08;;;;;;;1.90;99.80;102194.00;5015845;28;20079;-87
2022/03/16 05:09:47;;;;;;;36.35;18.90;;;;;;;1.93;99.94;102187.03;5017699;28;20033;-87
2022/03/16 05:12:13;;;;;;;33.03;18.50;;;;;;;1.88;99.57;102191.50;5020384;28;20285;-87
2022/03/16 05:14:38;;;;;;;35.40;17.55;;;;;;;1.86;99.47;102184.81;5019802;28;20036;-88
2022/03/16 05:17:04;;;;;;;37.80;18.83;;;;;;;1.91;99.43;102188.00;5017047;28;20056;-87
2022/03/16 05:19:31;;;;;;;38.10;18.33;;;;;;;1.94;99.84;102190.41;5017500;28;20037;-88
2022/03/16 05:21:56;;;;;;;37.95;16.92;;;;;;;1.98;99.81;102191.13;5009424;28;20037;-88
2022/03/16 05:24:23;;;;;;;37.30;17.70;;;;;;;2.06;99.83;102192.47;5016543;28;20029;-88
2022/03/16 05:26:50;;;;;;;39.00;17.67;;;;;;;1.98;99.80;102202.22;5031558;28;20043;-88
2022/03/16 05:29:16;;;;;;;33.90;17.38;;;;;;;1.98;100.00;102204.78;5014797;28;20528;-87
2022/03/16 05:31:42;;;;;;;34.83;18.15;;;;;;;2.04;99.97;102209.63;5012391;28;20025;-86
2022/03/16 05:34:08;;;;;;;40.83;19.08;;;;;;;2.07;100.00;102213.75;5012141;28;20108;-88
2022/03/16 05:36:34;;;;;;;39.88;19.48;;;;;;;2.07;99.88;102204.38;5027333;28;20039;-88
2022/03/16 05:38:59;;;;;;;36.72;18.55;;;;;;;2.12;100.00;102201.59;5029525;28;20040;-87
2022/03/16 05:41:25;;;;;;;39.08;20.13;;;;;;;2.03;100.00;102199.44;5032542;28;20101;-88
2022/03/16 05:43:50;;;;;;;39.28;19.48;;;;;;;2.01;100.00;102204.63;5039199;28;20313;-87
2022/03/16 05:46:16;;;;;;;39.15;19.95;;;;;;;2.08;100.00;102203.47;5017668;28;20043;-87
2022/03/16 05:48:42;;;;;;;39.00;18.92;;;;;;;2.05;99.97;102205.31;5020183;28;20029;-88
2022/03/16 05:51:08;;;;;;;36.55;18.42;;;;;;;2.14;99.81;102212.59;5018865;28;20075;-88
2022/03/16 05:53:34;;;;;;;39.67;18.45;;;;;;;2.11;99.80;102212.72;5015818;28;20536;-87
2022/03/16 05:55:59;;;;;;;38.22;18.48;;;;;;;2.06;99.87;102212.13;5013376;28;20033;-88
2022/03/16 05:58:25;;;;;;;37.22;18.83;;;;;;;2.01;99.70;102219.16;5024748;28;20036;-88
2022/03/16 06:00:51;;;;;;;37.17;18.90;;;;;;;1.96;99.96;102224.47;5016284;28;20481;-88
2022/03/16 06:03:16;;;;;;;37.83;19.65;;;;;;;1.97;100.00;102221.00;5017686;28;20039;-88
2022/03/16 06:05:42;;;;;;;37.95;19.70;;;;;;;1.99;100.00;102226.06;5016804;28;20044;-87
2022/03/16 06:08:07;;;;;;;38.45;18.27;;;;;;;1.96;99.84;102221.91;5018695;28;20057;-88
2022/03/16 06:10:33;;;;;;;36.13;19.63;;;;;;;1.97;100.00;102213.31;5011649;28;20029;-88
2022/03/16 06:13:03;;;;;;;32.63;18.63;;;;;;;1.98;99.79;102211.59;5016050;28;20052;-88
2022/03/16 06:15:36;;;;;;;35.47;18.80;;;;;;;1.98;99.97;102215.00;5015160;28;20040;-88
2022/03/16 06:18:02;;;;;;;39.75;18.95;;;;;;;2.08;99.90;102210.31;5012530;28;20424;-88
2022/03/16 06:20:32;;;;;;;34.35;18.40;;;;;;;2.05;99.66;102213.81;5011620;28;20024;-87
2022/03/16 06:22:58;;;;;;;39.28;19.98;;;;;;;2.03;99.90;102219.91;5012901;28;20044;-88
2022/03/16 06:25:24;;;;;;;38.17;19.17;;;;;;;2.09;99.76;102215.38;5013205;28;20037;-88
2022/03/16 06:27:50;;;;;;;38.92;19.60;;;;;;;2.19;99.60;102220.09;5025539;28;20036;-88
2022/03/16 06:30:16;;;;;;;34.58;18.10;;;;;;;2.22;99.55;102212.25;5012993;28;20028;-88
2022/03/16 06:32:44;;;;;;;36.25;19.00;;;;;;;2.28;99.65;102209.44;5020176;28;20029;-88
2022/03/16 06:35:10;;;;;;;45.22;21.15;;;;;;;2.32;99.42;102211.81;5018669;28;20104;-88
2022/03/16 06:37:36;;;;;;;39.60;18.80;;;;;;;2.39;99.09;102209.78;5014186;28;20032;-88
2022/03/16 06:40:01;;;;;;;37.38;17.90;;;;;;;2.55;98.96;102206.56;5013114;28;20503;-89
2022/03/16 06:42:27;;;;;;;37.28;18.00;;;;;;;2.59;98.45;102208.91;5018259;28;20044;-88
2022/03/16 06:44:52;;;;;;;33.00;17.77;;;;;;;2.77;98.03;102221.75;5011895;28;20056;-88
2022/03/16 06:47:18;;;;;;;37.97;15.98;;;;;;;2.89;97.32;102224.59;5010778;28;20501;-89
2022/03/16 06:49:44;;;;;;;38.53;16.67;;;;;;;3.14;96.26;102210.63;5016503;28;20391;-89
2022/03/16 06:52:09;;;;;;;39.33;16.17;;;;;;;3.39;95.43;102217.97;5024544;28;20055;-89
2022/03/16 06:54:35;;;;;;;30.10;16.00;;;;;;;3.78;93.72;102216.06;5013378;28;20234;-89
2022/03/16 06:57:00;;;;;;;31.88;15.00;;;;;;;4.09;92.12;102211.03;5015520;28;20047;-88
2022/03/16 06:59:26;;;;;;;35.03;14.68;;;;;;;4.22;90.35;102211.22;5017107;28;20467;-88
2022/03/16 07:01:51;;;;;;;29.10;15.20;;;;;;;4.35;90.06;102219.13;5015356;28;20564;-88
2022/03/16 07:04:17;;;;;;;32.17;15.65;;;;;;;4.36;89.31;102220.78;5025441;28;20044;-88
2022/03/16 07:06:42;;;;;;;27.40;14.88;;;;;;;4.67;88.66;102208.84;5028826;28;20036;-88
2022/03/16 07:09:08;;;;;;;28.45;15.38;;;;;;;4.84;88.07;102213.91;5012468;28;20064;-89
2022/03/16 07:11:33;;;;;;;32.05;16.30;;;;;;;5.06;87.21;102205.00;5024363;28;20087;-88
2022/03/16 07:16:43;;;;;;;28.00;15.25;;;;;;;5.36;84.74;102202.44;5023371;28;20045;-89
2022/03/16 07:19:08;;;;;;;30.40;16.58;;;;;;;5.49;85.11;102205.16;5010949;28;20037;-89
2022/03/16 07:21:34;;;;;;;32.03;17.85;;;;;;;5.64;84.72;102196.53;5015293;28;20029;-88
2022/03/16 07:23:59;;;;;;;37.55;17.75;;;;;;;5.72;83.94;102198.66;5009947;28;20025;-89
2022/03/16 07:26:27;;;;;;;35.72;18.80;;;;;;;5.68;83.67;102196.38;5028410;28;20385;-88
2022/03/16 07:28:53;;;;;;;41.80;18.98;;;;;;;5.94;83.21;102195.66;5015295;28;20037;-88
2022/03/16 07:31:19;;;;;;;43.08;19.92;;;;;;;6.30;82.02;102185.81;5029245;28;20024;-88
2022/03/16 07:33:44;;;;;;;48.20;21.42;;;;;;;5.93;82.22;102185.44;5010924;28;20183;-89
2022/03/16 07:36:10;;;;;;;49.22;22.17;;;;;;;6.01;82.22;102191.00;5012966;28;20116;-89
2022/03/16 07:38:36;;;;;;;39.42;19.80;;;;;;;6.16;82.01;102186.66;5028655;28;20359;-89
2022/03/16 07:41:02;;;;;;;46.47;20.98;;;;;;;6.58;81.13;102184.94;5016892;28;20032;-88
2022/03/16 07:43:29;;;;;;;40.53;20.88;;;;;;;6.68;79.97;102186.00;5019418;28;20036;-89
2022/03/16 07:45:56;;;;;;;38.70;20.48;;;;;;;7.17;78.87;102182.03;5031589;28;20021;-88
2022/03/16 07:48:22;;;;;;;50.22;22.92;;;;;;;7.43;77.13;102172.59;5023799;28;20031;-89
2022/03/16 07:50:48;;;;;;;36.85;18.80;;;;;;;7.07;77.27;102174.06;5012633;28;20049;-91
2022/03/16 07:53:13;;;;;;;29.45;16.77;;;;;;;7.00;77.99;102185.72;5005769;28;20033;-89
2022/03/16 07:55:39;;;;;;;29.67;15.35;;;;;;;7.12;77.91;102179.78;5005483;28;20033;-88
2022/03/16 07:58:05;;;;;;;31.75;17.10;;;;;;;7.51;76.81;102180.63;4994888;28;20475;-88
2022/03/16 08:00:31;;;;;;;28.95;16.15;;;;;;;7.82;75.95;102193.25;5025639;28;20032;-88
2022/03/16 08:02:59;;;;;;;44.20;19.50;;;;;;;7.59;75.20;102187.88;5017726;28;20041;-88
2022/03/16 08:05:24;;;;;;;35.60;18.35;;;;;;;7.76;75.02;102190.16;5012328;28;20504;-88
2022/03/16 08:07:50;;;;;;;38.17;19.60;;;;;;;7.62;75.36;102192.00;5017405;28;20033;-88
2022/03/16 08:10:16;;;;;;;36.58;17.95;;;;;;;7.62;74.86;102192.00;5017709;28;20028;-88
2022/03/16 08:12:41;;;;;;;35.70;18.92;;;;;;;7.16;76.99;102203.63;5015900;28;20037;-89
2022/03/16 08:15:07;;;;;;;34.88;19.52;;;;;;;7.45;76.62;102188.78;5017286;28;20032;-88
2022/03/16 08:17:33;;;;;;;36.28;17.55;;;;;;;7.63;75.67;102180.75;5033303;28;20048;-88
2022/03/16 08:19:59;;;;;;;30.25;15.85;;;;;;;7.62;75.13;102184.28;5020881;28;20393;-87
2022/03/16 08:22:29;;;;;;;31.27;16.88;;;;;;;7.47;75.62;102171.44;5015709;28;20509;-89
2022/03/16 08:24:55;;;;;;;33.70;17.55;;;;;;;7.99;73.96;102182.59;5015068;28;20025;-89
2022/03/16 08:27:23;;;;;;;32.33;16.70;;;;;;;7.66;74.57;102168.47;5017021;28;20071;-88
2022/03/16 08:29:49;;;;;;;27.92;15.43;;;;;;;7.24;76.15;102175.56;5015105;28;20102;-88
2022/03/16 08:32:14;;;;;;;31.25;15.38;;;;;;;7.16;76.94;102175.25;5016387;28;20074;-87
2022/03/16 08:34:40;;;;;;;29.23;15.05;;;;;;;7.15;77.26;102164.06;5013297;28;20033;-88
2022/03/16 08:37:06;;;;;;;31.00;16.38;;;;;;;7.02;77.54;102176.13;5014920;28;20028;-89
2022/03/16 08:39:31;;;;;;;31.38;16.25;;;;;;;7.28;77.45;102181.34;5017531;28;20037;-88
2022/03/16 08:41:56;;;;;;;31.77;14.98;;;;;;;7.27;76.96;102174.50;5011779;28;20022;-88
2022/03/16 08:44:23;;;;;;;30.40;15.57;;;;;;;7.40;77.07;102180.53;5020815;28;20099;-88
2022/03/16 08:46:50;;;;;;;30.35;15.90;;;;;;;7.60;77.22;102174.84;5018197;28;20041;-87
2022/03/16 08:49:16;;;;;;;34.13;17.23;;;;;;;7.44;76.56;102168.25;5015040;28;20037;-88
2022/03/16 08:51:42;;;;;;;29.40;15.13;;;;;;;7.38;77.08;102172.91;5020371;28;20115;-88
2022/03/16 08:54:08;;;;;;;33.85;17.40;;;;;;;7.39;77.29;102166.81;5013621;28;20037;-88
2022/03/16 08:56:33;;;;;;;30.90;16.52;;;;;;;7.64;76.05;102161.75;5017894;28;20037;-89
2022/03/16 08:59:00;;;;;;;35.28;17.20;;;;;;;7.62;75.18;102161.03;5017858;28;20033;-88
2022/03/16 09:01:26;;;;;;;31.23;17.27;;;;;;;8.01;74.31;102165.25;5034019;28;20028;-88
2022/03/16 09:03:53;;;;;;;31.63;17.42;;;;;;;8.36;73.94;102160.19;5015679;28;20029;-88
2022/03/16 09:06:19;;;;;;;33.42;18.42;;;;;;;8.39;73.07;102159.97;5031908;28;20029;-87
2022/03/16 09:08:45;;;;;;;31.17;17.08;;;;;;;8.72;71.60;102161.13;5020736;28;20071;-88
2022/03/16 09:11:10;;;;;;;26.88;16.08;;;;;;;8.70;71.23;102168.19;5026555;28;20036;-88
2022/03/16 09:13:36;;;;;;;26.67;14.52;;;;;;;8.44;71.59;102151.94;5028924;28;20044;-88
2022/03/16 09:16:01;;;;;;;28.05;16.27;;;;;;;8.37;72.30;102150.69;5011037;28;20037;-87
2022/03/16 09:18:28;;;;;;;27.88;14.63;;;;;;;8.39;72.44;102161.72;5011254;28;20115;-88
2022/03/16 09:20:53;;;;;;;26.00;15.57;;;;;;;8.45;72.60;102156.16;5011280;28;20025;-88
2022/03/16 09:23:19;;;;;;;28.83;15.73;;;;;;;8.88;71.20;102153.06;5015956;28;20128;-89
2022/03/16 09:25:45;;;;;;;27.27;15.80;;;;;;;8.57;71.50;102162.22;5012583;28;20064;-87
2022/03/16 09:28:11;;;;;;;23.67;15.02;;;;;;;8.56;71.54;102171.72;5013664;28;20048;-88
2022/03/16 09:30:37;;;;;;;28.92;15.38;;;;;;;8.66;71.55;102168.50;5013678;28;20571;-89
2022/03/16 09:33:04;;;;;;;24.88;14.73;;;;;;;8.87;71.27;102166.09;5015302;28;20032;-88
2022/03/16 09:35:31;;;;;;;26.95;15.02;;;;;;;8.73;71.24;102169.69;5027501;28;20401;-88
2022/03/16 09:38:00;;;;;;;26.38;15.40;;;;;;;8.87;71.66;102160.94;5012502;28;20090;-88
2022/03/16 09:40:25;;;;;;;24.50;14.02;;;;;;;8.77;71.71;102159.00;5011201;28;20033;-88
2022/03/16 09:42:53;;;;;;;25.20;13.27;;;;;;;8.69;71.29;102153.59;5014607;28;20059;-88
2022/03/16 09:45:22;;;;;;;23.52;13.43;;;;;;;8.79;71.80;102147.75;5027804;28;20036;-89
2022/03/16 09:47:49;;;;;;;22.40;13.48;;;;;;;8.80;71.24;102152.81;5018312;28;20136;-87
2022/03/16 09:50:19;;;;;;;21.05;13.30;;;;;;;8.73;71.41;102154.19;5015236;28;20033;-89
2022/03/16 09:52:47;;;;;;;22.80;13.48;;;;;;;8.83;71.33;102141.41;5006543;28;20029;-89
2022/03/16 09:55:17;;;;;;;22.70;13.13;;;;;;;8.93;70.73;102140.63;5015187;28;20021;-88
2022/03/16 09:57:43;;;;;;;25.70;14.18;;;;;;;9.19;70.05;102130.09;5029509;28;20548;-89
2022/03/16 10:00:12;;;;;;;23.92;13.18;;;;;;;9.30;69.53;102144.84;5014594;28;20045;-90
2022/03/16 10:02:39;;;;;;;23.98;13.02;;;;;;;9.22;69.89;102132.47;5028050;28;20132;-89
2022/03/16 10:05:09;;;;;;;25.05;13.88;;;;;;;9.38;69.98;102129.56;5012774;28;20040;-89
2022/03/16 10:07:37;;;;;;;22.30;12.65;;;;;;;9.46;69.18;102122.03;5014101;28;20041;-89
2022/03/16 10:15:36;;;;;;;21.58;12.75;;;;;;;9.62;67.41;102129.44;5024329;28;20460;-88
2022/03/16 10:18:03;;;;;;;20.38;12.48;;;;;;;9.60;67.54;102117.56;5015289;28;20037;-88
2022/03/16 10:20:34;;;;;;;18.17;11.90;;;;;;;9.79;67.75;102117.78;4999811;28;20040;-88
2022/03/16 10:23:17;;;;;;;19.65;11.48;;;;;;;9.89;67.00;102112.75;5010849;28;20047;-89
2022/03/16 10:25:51;;;;;;;21.52;11.95;;;;;;;10.17;67.72;102126.97;5013793;28;20057;-89
2022/03/16 10:28:24;;;;;;;23.10;12.07;;;;;;;10.40;66.30;102127.75;5010539;28;20040;-89
2022/03/16 10:31:02;;;;;;;21.15;11.80;;;;;;;10.29;65.55;102115.59;5015189;28;20040;-87
2022/03/16 10:33:48;;;;;;;25.30;12.50;;;;;;;10.27;66.11;102121.88;5027075;28;20491;-88
2022/03/16 10:36:16;;;;;;;22.17;12.57;;;;;;;10.29;65.24;102119.97;5024200;28;20680;-88
2022/03/16 10:38:43;;;;;;;22.27;12.35;;;;;;;10.28;65.40;102106.19;5011217;28;20041;-89
2022/03/16 10:47:11;;;;;;;19.50;10.80;;;;;;;10.80;65.19;102108.16;5025353;28;20119;-88
2022/03/16 10:49:38;;;;;;;20.27;12.23;;;;;;;10.76;64.13;102117.94;4995671;28;20053;-88
2022/03/16 10:52:07;;;;;;;19.67;11.55;;;;;;;10.82;64.17;102111.44;5005820;28;20526;-87
2022/03/16 10:54:34;;;;;;;18.30;11.05;;;;;;;10.76;63.78;102101.56;5008417;28;20508;-90
2022/03/16 10:57:02;;;;;;;18.42;10.65;;;;;;;10.87;63.80;102094.53;5017657;28;20423;-88
2022/03/16 10:59:34;;;;;;;15.63;10.02;;;;;;;11.04;63.19;102092.34;5011425;28;20036;-88
2022/03/16 11:02:12;;;;;;;18.52;11.45;;;;;;;10.97;62.82;102083.41;5008170;28;20127;-90
2022/03/16 11:04:39;;;;;;;16.73;10.05;;;;;;;11.09;62.28;102077.19;5026213;28;20080;-87
2022/03/16 11:07:06;;;;;;;17.13;10.57;;;;;;;11.26;62.99;102078.34;5029760;28;20520;-89
2022/03/16 11:09:37;;;;;;;17.77;10.35;;;;;;;11.40;62.20;102072.81;5008610;28;20029;-89
2022/03/16 11:14:49;;;;;;;17.90;10.68;;;;;;;11.42;62.34;102083.91;5030094;28;20481;-89
2022/03/16 11:17:15;;;;;;;18.35;10.95;;;;;;;11.62;61.93;102081.38;5015434;28;20031;-90
2022/03/16 11:19:47;;;;;;;18.10;11.10;;;;;;;11.63;60.95;102076.06;5015378;28;20056;-88
2022/03/16 11:22:27;;;;;;;17.58;9.82;;;;;;;11.58;60.05;102080.00;5013619;28;20420;-88
2022/03/16 11:25:08;;;;;;;17.90;10.95;;;;;;;11.41;61.19;102071.84;5019666;28;20036;-88
2022/03/16 11:27:47;;;;;;;16.35;9.55;;;;;;;11.43;62.20;102071.72;5010273;28;20029;-88
2022/03/16 11:30:29;;;;;;;16.50;10.25;;;;;;;11.55;60.51;102069.88;5027544;28;20045;-88